Terminal Aerodrome Forecast
Issued by NWS

Home | Current Version | Previous Version | Text Only | Print | Product List | Glossary On
Versions: 1 2 3 4 5 6 7 8 9 10 11 12 13 14
000
FTUS46 KMFR 301133
TAFRBG
TAF
KRBG 301133Z 3012/3112 18005KT P6SM -SHRA BKN035 OVC050
     FM301300 20004KT P6SM -SHRA SCT015 BKN030 OVC040
     FM301800 24005KT P6SM -SHRA BKN040
     FM301900 24005KT P6SM VCSH BKN045
     FM310200 30004KT P6SM SCT050=

USA.gov is the U.S. government's official web portal to all federal, state and local government web resources and services.